createdAt,value
2022-10-08T00:01:08.937Z,83.33
2022-10-08T00:03:41.378Z,82.81
2022-10-08T00:06:13.302Z,82.67
2022-10-08T00:08:42.047Z,83.64
2022-10-08T00:11:16.488Z,82.93
2022-10-08T00:13:45.481Z,83.58
2022-10-08T00:16:30.325Z,83.67
2022-10-08T00:19:06.898Z,83.46
2022-10-08T00:21:36.392Z,83.25
2022-10-08T00:24:05.233Z,83.44
2022-10-08T00:26:33.723Z,83.35
2022-10-08T00:29:03.277Z,83.12
2022-10-08T00:31:33.053Z,83.35
2022-10-08T00:34:01.956Z,83.41
2022-10-08T00:36:31.539Z,82.97
2022-10-08T00:39:05.008Z,83.64
2022-10-08T00:41:34.269Z,82.97
2022-10-08T00:44:03.828Z,83.84
2022-10-08T00:46:44.539Z,84.11
2022-10-08T00:49:11.506Z,82.55
2022-10-08T00:51:49.709Z,83.49
2022-10-08T00:54:19.246Z,82.98
2022-10-08T00:56:49.517Z,83.34
2022-10-08T00:59:17.020Z,82.37
2022-10-08T01:01:44.221Z,82.71
2022-10-08T01:04:13.448Z,83.19
2022-10-08T01:06:56.575Z,83.35
2022-10-08T01:09:38.800Z,83.58
2022-10-08T01:12:33.257Z,83.10
2022-10-08T01:15:26.108Z,83.36
2022-10-08T01:18:15.794Z,83.95
2022-10-08T01:21:23.752Z,83.36
2022-10-08T01:24:50.770Z,83.85
2022-10-08T01:27:31.780Z,83.75
2022-10-08T01:30:04.580Z,83.20
2022-10-08T01:32:38.813Z,83.25
2022-10-08T01:35:13.347Z,83.56
2022-10-08T01:37:43.428Z,83.14
2022-10-08T01:40:18.852Z,83.17
2022-10-08T01:42:48.170Z,83.79
2022-10-08T01:45:21.699Z,83.68
2022-10-08T01:47:51.300Z,83.27
2022-10-08T01:50:30.540Z,83.91
2022-10-08T01:53:02.299Z,82.81
2022-10-08T01:55:36.737Z,83.72
2022-10-08T01:58:08.441Z,83.66
2022-10-08T02:00:38.356Z,83.17
2022-10-08T02:03:04.954Z,82.88
2022-10-08T02:05:37.030Z,82.73
2022-10-08T02:08:04.560Z,83.09
2022-10-08T02:10:31.773Z,83.02
2022-10-08T02:12:58.718Z,82.73
2022-10-08T02:15:44.529Z,83.70
2022-10-08T02:18:13.949Z,83.24
2022-10-08T02:20:56.559Z,83.81
2022-10-08T02:23:29.824Z,83.57
2022-10-08T02:26:05.390Z,83.68
2022-10-08T02:28:38.390Z,83.44
2022-10-08T02:31:26.230Z,82.97
2022-10-08T02:33:59.782Z,83.16
2022-10-08T02:36:31.586Z,82.87
2022-10-08T02:39:01.572Z,82.47
2022-10-08T02:41:33.395Z,82.59
2022-10-08T02:44:06.470Z,82.84
2022-10-08T02:46:38.620Z,83.39
2022-10-08T02:49:28.541Z,83.44
2022-10-08T02:51:59.179Z,83.38
2022-10-08T02:54:26.096Z,83.03
2022-10-08T02:57:09.433Z,83.34
2022-10-08T02:59:36.998Z,84.00
2022-10-08T03:02:05.395Z,83.35
2022-10-08T03:04:44.467Z,84.25
2022-10-08T03:07:13.542Z,82.93
2022-10-08T03:09:44.074Z,83.46
2022-10-08T03:12:10.783Z,82.90
2022-10-08T03:14:43.678Z,83.26
2022-10-08T03:17:14.224Z,83.04
2022-10-08T03:19:40.732Z,83.29
2022-10-08T03:22:07.861Z,82.72
2022-10-08T03:24:35.803Z,83.17
2022-10-08T03:27:02.594Z,83.25
2022-10-08T03:29:29.109Z,83.58
2022-10-08T03:31:55.582Z,83.59
2022-10-08T03:34:24.394Z,83.35
2022-10-08T03:36:50.895Z,83.64
2022-10-08T03:39:17.453Z,83.36
2022-10-08T03:41:43.984Z,83.94
2022-10-08T03:44:12.352Z,83.93
2022-10-08T03:46:38.968Z,83.99
2022-10-08T03:49:05.556Z,84.24
2022-10-08T03:51:32.155Z,83.81
2022-10-08T03:53:58.705Z,84.20
2022-10-08T03:56:25.744Z,84.41
2022-10-08T03:58:55.012Z,83.77
2022-10-08T04:01:22.093Z,84.01
2022-10-08T04:03:48.938Z,83.50
2022-10-08T04:06:15.518Z,83.81
2022-10-08T04:08:42.277Z,83.83
2022-10-08T04:11:11.267Z,84.16
2022-10-08T04:13:38.575Z,83.96
2022-10-08T04:16:15.262Z,83.95
2022-10-08T04:18:42.079Z,84.85
2022-10-08T04:21:11.419Z,83.79
2022-10-08T04:23:39.176Z,83.79
2022-10-08T04:26:06.767Z,83.64
2022-10-08T04:28:38.214Z,83.59
2022-10-08T04:31:17.276Z,84.08
2022-10-08T04:33:45.195Z,83.20
2022-10-08T04:36:17.675Z,83.24
2022-10-08T04:38:45.109Z,83.23
2022-10-08T04:41:20.109Z,83.25
2022-10-08T04:43:46.681Z,83.15
2022-10-08T04:46:15.518Z,83.20
2022-10-08T04:48:46.895Z,83.21
2022-10-08T04:51:13.496Z,83.32
2022-10-08T04:53:40.140Z,83.09
2022-10-08T04:56:12.678Z,84.00
2022-10-08T04:58:39.517Z,83.45
2022-10-08T05:01:07.784Z,83.25
2022-10-08T05:03:42.552Z,83.54
2022-10-08T05:06:09.837Z,83.14
2022-10-08T05:08:36.831Z,83.21
2022-10-08T05:11:04.719Z,82.99
2022-10-08T05:13:31.241Z,82.95
2022-10-08T05:16:03.213Z,82.96
2022-10-08T05:18:29.726Z,83.11
2022-10-08T05:20:56.242Z,83.19
2022-10-08T05:23:22.801Z,82.73
2022-10-08T05:25:49.349Z,83.20
2022-10-08T05:28:15.887Z,83.27
2022-10-08T05:30:42.539Z,82.88
2022-10-08T05:33:09.035Z,82.89
2022-10-08T05:35:38.536Z,83.07
2022-10-08T05:38:05.256Z,83.25
2022-10-08T05:40:32.050Z,83.19
2022-10-08T05:42:58.573Z,82.36
2022-10-08T05:45:25.144Z,82.44
2022-10-08T05:47:51.623Z,82.11
2022-10-08T05:50:18.262Z,82.77
2022-10-08T05:52:45.343Z,82.41
2022-10-08T05:55:12.037Z,82.17
2022-10-08T05:57:38.654Z,83.18
2022-10-08T06:00:05.572Z,83.19
2022-10-08T06:02:32.126Z,82.47
2022-10-08T06:04:58.770Z,83.35
2022-10-08T06:07:25.284Z,83.32
2022-10-08T06:09:52.544Z,83.70
2022-10-08T06:12:19.105Z,83.41
2022-10-08T06:14:45.582Z,83.31
2022-10-08T06:17:12.125Z,84.09
2022-10-08T06:19:38.598Z,83.18
2022-10-08T06:22:05.201Z,83.92
2022-10-08T06:24:31.812Z,84.12
2022-10-08T06:26:58.414Z,84.17
2022-10-08T06:29:24.928Z,84.11
2022-10-08T06:31:51.834Z,84.42
2022-10-08T06:34:18.488Z,83.81
2022-10-08T06:36:45.061Z,84.29
2022-10-08T06:39:14.177Z,83.94
2022-10-08T06:41:41.062Z,83.76
2022-10-08T06:44:10.755Z,84.14
2022-10-08T06:46:37.378Z,83.87
2022-10-08T06:49:06.080Z,84.28
2022-10-08T06:51:33.551Z,83.62
2022-10-08T06:54:06.964Z,83.69
2022-10-08T06:56:36.207Z,84.62
2022-10-08T06:59:03.658Z,85.15
2022-10-08T07:01:33.347Z,85.24
2022-10-08T07:04:01.329Z,85.08
2022-10-08T07:06:28.477Z,85.62
2022-10-08T07:09:00.431Z,84.86
2022-10-08T07:11:27.460Z,85.44
2022-10-08T07:13:55.138Z,85.65
2022-10-08T07:16:23.612Z,85.76
2022-10-08T07:18:52.074Z,85.75
2022-10-08T07:21:20.903Z,86.08
2022-10-08T07:23:47.557Z,86.07
2022-10-08T07:26:16.477Z,85.68
2022-10-08T07:28:51.156Z,86.24
2022-10-08T07:31:21.099Z,85.83
2022-10-08T07:33:47.883Z,86.55
2022-10-08T07:36:16.768Z,86.61
2022-10-08T07:38:43.835Z,86.26
2022-10-08T07:41:11.897Z,86.38
2022-10-08T07:43:41.453Z,86.40
2022-10-08T07:46:09.572Z,86.62
2022-10-08T07:48:36.545Z,86.82
2022-10-08T07:51:21.340Z,86.66
2022-10-08T07:53:48.632Z,86.52
2022-10-08T07:56:17.957Z,86.47
2022-10-08T07:58:44.712Z,86.25
2022-10-08T08:01:16.668Z,86.54
2022-10-08T08:03:44.019Z,85.72
2022-10-08T08:06:12.667Z,86.70
2022-10-08T08:08:41.000Z,86.82
2022-10-08T08:11:10.040Z,86.08
2022-10-08T08:13:37.800Z,85.98
2022-10-08T08:16:10.254Z,86.48
2022-10-08T08:18:40.591Z,86.94
2022-10-08T08:21:18.327Z,85.56
2022-10-08T08:23:50.655Z,86.34
2022-10-08T08:26:39.174Z,86.49
2022-10-08T08:29:12.790Z,85.98
2022-10-08T08:31:43.341Z,86.60
2022-10-08T08:34:17.116Z,85.85
2022-10-08T08:36:46.872Z,85.33
2022-10-08T08:39:17.344Z,85.65
2022-10-08T08:42:05.221Z,86.74
2022-10-08T08:44:37.646Z,85.66
2022-10-08T08:47:12.731Z,85.99
2022-10-08T08:49:50.844Z,84.49
2022-10-08T08:52:21.545Z,85.13
2022-10-08T08:54:49.643Z,84.58
2022-10-08T08:57:47.191Z,85.29
2022-10-08T09:00:29.314Z,84.03
2022-10-08T09:02:57.402Z,83.22
2022-10-08T09:05:25.749Z,83.57
2022-10-08T09:08:07.374Z,83.04
2022-10-08T09:10:52.671Z,82.40
2022-10-08T09:13:24.472Z,81.01
2022-10-08T09:15:53.063Z,81.68
2022-10-08T09:18:19.561Z,81.68
2022-10-08T09:20:46.460Z,80.61
2022-10-08T09:23:17.395Z,80.19
2022-10-08T09:25:49.229Z,78.60
2022-10-08T09:28:55.913Z,76.14
2022-10-08T09:31:31.288Z,77.76
2022-10-08T09:34:04.224Z,75.62
2022-10-08T09:36:40.530Z,76.79
2022-10-08T09:39:17.399Z,75.73
2022-10-08T09:42:08.278Z,75.14
2022-10-08T09:44:45.941Z,71.98
2022-10-08T09:47:15.350Z,70.81
2022-10-08T09:49:42.336Z,69.07
2022-10-08T09:52:27.133Z,63.73
2022-10-08T09:55:00.867Z,69.12
2022-10-08T09:57:29.648Z,68.46
2022-10-08T10:00:02.827Z,68.88
2022-10-08T10:02:35.989Z,66.46
2022-10-08T10:05:05.770Z,65.98
2022-10-08T10:07:41.471Z,66.82
2022-10-08T10:10:22.453Z,62.60
2022-10-08T10:12:54.614Z,63.62
2022-10-08T10:15:26.623Z,62.61
2022-10-08T10:18:01.380Z,63.23
2022-10-08T10:20:28.033Z,62.44
2022-10-08T10:23:21.107Z,61.40
2022-10-08T10:26:15.422Z,58.73
2022-10-08T10:28:41.937Z,59.61
2022-10-08T10:31:19.116Z,54.03
2022-10-08T10:34:20.107Z,57.03
2022-10-08T10:36:55.190Z,57.58
2022-10-08T10:39:47.975Z,57.76
2022-10-08T10:42:47.217Z,57.01
2022-10-08T10:45:13.818Z,58.61
2022-10-08T10:47:40.771Z,57.15
2022-10-08T10:50:13.788Z,52.51
2022-10-08T10:53:20.340Z,53.82
2022-10-08T10:55:55.033Z,54.05
2022-10-08T10:58:55.774Z,54.27
2022-10-08T11:01:37.911Z,50.27
2022-10-08T11:04:14.386Z,51.83
2022-10-08T11:06:59.559Z,51.36
2022-10-08T11:09:35.214Z,49.63
2022-10-08T11:12:39.840Z,52.47
2022-10-08T11:15:24.757Z,51.94
2022-10-08T11:17:54.285Z,51.54
2022-10-08T11:20:44.116Z,51.72
2022-10-08T11:23:56.853Z,46.28
2022-10-08T11:26:39.389Z,47.77
2022-10-08T11:29:18.110Z,47.43
2022-10-08T11:31:52.683Z,46.40
2022-10-08T11:34:31.195Z,48.67
2022-10-08T11:37:16.573Z,48.09
2022-10-08T11:40:15.023Z,46.95
2022-10-08T11:43:03.702Z,48.32
2022-10-08T11:45:32.248Z,47.84
2022-10-08T11:48:00.817Z,46.95
2022-10-08T11:50:27.363Z,47.97
2022-10-08T11:52:59.751Z,47.15
2022-10-08T11:55:31.048Z,47.63
2022-10-08T11:58:08.355Z,47.13
2022-10-08T12:00:42.706Z,47.55
2022-10-08T12:03:32.286Z,47.60
2022-10-08T12:06:12.934Z,48.41
2022-10-08T12:09:00.981Z,48.11
2022-10-08T12:11:37.410Z,46.60
2022-10-08T12:14:27.110Z,46.31
2022-10-08T12:16:57.142Z,48.65
2022-10-08T12:19:35.865Z,46.56
2022-10-08T12:22:14.685Z,48.85
2022-10-08T12:24:42.977Z,48.70
2022-10-08T12:27:18.716Z,48.87
2022-10-08T12:29:55.834Z,46.32
2022-10-08T12:32:31.470Z,47.40
2022-10-08T12:34:58.982Z,48.27
2022-10-08T12:37:31.146Z,48.38
2022-10-08T12:40:03.187Z,48.81
2022-10-08T12:42:37.432Z,50.02
2022-10-08T12:45:22.379Z,49.05
2022-10-08T12:47:52.009Z,49.91
2022-10-08T12:50:37.299Z,49.51
2022-10-08T12:53:06.259Z,49.52
2022-10-08T12:55:43.664Z,50.05
2022-10-08T12:58:17.851Z,50.33
2022-10-08T13:00:45.638Z,51.59
2022-10-08T13:03:17.508Z,50.50
2022-10-08T13:05:44.460Z,51.44
2022-10-08T13:08:39.391Z,48.10
2022-10-08T13:11:13.892Z,48.77
2022-10-08T13:13:40.391Z,48.92
2022-10-08T13:16:07.120Z,48.96
2022-10-08T13:18:35.659Z,48.85
2022-10-08T13:21:05.322Z,49.75
2022-10-08T13:23:40.834Z,49.45
2022-10-08T13:26:38.266Z,50.14
2022-10-08T13:29:37.305Z,50.41
2022-10-08T13:32:14.847Z,50.54
2022-10-08T13:34:41.329Z,50.95
2022-10-08T13:37:15.785Z,50.50
2022-10-08T13:39:50.810Z,50.49
2022-10-08T13:42:19.944Z,50.10
2022-10-08T13:44:46.539Z,50.69
2022-10-08T13:47:15.407Z,49.24
2022-10-08T13:49:42.379Z,49.91
2022-10-08T13:52:15.725Z,49.80
2022-10-08T13:54:42.622Z,50.87
2022-10-08T13:57:09.968Z,50.14
2022-10-08T13:59:36.895Z,50.02
2022-10-08T14:02:04.390Z,49.08
2022-10-08T14:04:30.994Z,48.67
2022-10-08T14:06:58.539Z,49.07
2022-10-08T14:09:28.208Z,49.32
2022-10-08T14:11:56.960Z,49.51
2022-10-08T14:14:24.262Z,49.18
2022-10-08T14:16:51.727Z,49.21
2022-10-08T14:19:20.471Z,49.09
2022-10-08T14:21:50.022Z,48.58
2022-10-08T14:24:17.132Z,47.82
2022-10-08T14:26:43.665Z,47.78
2022-10-08T14:29:10.227Z,47.39
2022-10-08T14:31:36.819Z,47.97
2022-10-08T14:34:03.727Z,49.01
2022-10-08T14:36:36.581Z,48.26
2022-10-08T14:39:04.822Z,48.79
2022-10-08T14:41:32.029Z,48.78
2022-10-08T14:43:59.044Z,47.60
2022-10-08T14:46:25.600Z,47.28
2022-10-08T14:48:52.256Z,47.45
2022-10-08T14:51:18.822Z,47.17
2022-10-08T14:53:45.434Z,47.85
2022-10-08T14:56:12.973Z,46.95
2022-10-08T14:58:40.333Z,46.86
2022-10-08T15:01:07.152Z,46.73
2022-10-08T15:03:33.997Z,46.45
2022-10-08T15:06:00.868Z,45.81
2022-10-08T15:08:28.439Z,44.39
2022-10-08T15:10:54.958Z,45.26
2022-10-08T15:13:21.571Z,44.74
2022-10-08T15:15:48.067Z,43.42
2022-10-08T15:18:14.618Z,43.78
2022-10-08T15:20:41.137Z,43.13
2022-10-08T15:23:10.241Z,42.33
2022-10-08T15:25:37.053Z,42.70
2022-10-08T15:28:03.788Z,41.54
2022-10-08T15:30:30.307Z,41.22
2022-10-08T15:32:56.997Z,42.22
2022-10-08T15:35:23.516Z,40.66
2022-10-08T15:37:50.030Z,42.03
2022-10-08T15:40:16.571Z,42.89
2022-10-08T15:42:43.055Z,41.97
2022-10-08T15:45:09.775Z,41.33
2022-10-08T15:47:36.330Z,41.68
2022-10-08T15:50:03.174Z,41.75
2022-10-08T15:52:29.729Z,42.75
2022-10-08T15:54:56.463Z,42.64
2022-10-08T15:57:23.114Z,44.11
2022-10-08T15:59:49.639Z,43.10
2022-10-08T16:02:17.918Z,42.91
2022-10-08T16:04:48.211Z,43.99
2022-10-08T16:07:15.675Z,43.65
2022-10-08T16:09:42.217Z,43.57
2022-10-08T16:12:08.720Z,44.22
2022-10-08T16:14:35.408Z,43.67
2022-10-08T16:17:02.920Z,44.73
2022-10-08T16:19:29.630Z,44.69
2022-10-08T16:21:58.461Z,45.40
2022-10-08T16:24:25.473Z,45.85
2022-10-08T16:26:52.400Z,45.90
2022-10-08T16:29:19.728Z,46.39
2022-10-08T16:31:47.648Z,46.64
2022-10-08T16:34:20.235Z,46.88
2022-10-08T16:36:48.428Z,47.51
2022-10-08T16:39:18.263Z,48.79
2022-10-08T16:41:45.499Z,48.56
2022-10-08T16:44:14.469Z,48.59
2022-10-08T16:46:48.353Z,49.34
2022-10-08T16:49:27.012Z,50.67
2022-10-08T16:51:57.512Z,50.71
2022-10-08T16:54:24.363Z,51.40
2022-10-08T16:56:50.859Z,51.70
2022-10-08T16:59:20.655Z,52.34
2022-10-08T17:01:50.807Z,52.97
2022-10-08T17:04:18.396Z,53.16
2022-10-08T17:06:45.383Z,53.68
2022-10-08T17:09:12.201Z,53.83
2022-10-08T17:11:40.026Z,54.61
2022-10-08T17:14:07.851Z,55.33
2022-10-08T17:16:35.729Z,55.40
2022-10-08T17:19:03.487Z,55.99
2022-10-08T17:21:31.309Z,55.71
2022-10-08T17:23:58.828Z,55.66
2022-10-08T17:26:27.514Z,56.67
2022-10-08T17:28:54.977Z,56.61
2022-10-08T17:31:24.113Z,57.73
2022-10-08T17:33:50.694Z,58.41
2022-10-08T17:36:22.508Z,57.36
2022-10-08T17:38:51.603Z,57.83
2022-10-08T17:41:20.945Z,58.49
2022-10-08T17:43:49.043Z,58.57
2022-10-08T17:46:21.863Z,59.48
2022-10-08T17:48:49.210Z,59.15
2022-10-08T17:51:18.533Z,59.75
2022-10-08T17:53:50.821Z,59.65
2022-10-08T17:56:18.769Z,60.04
2022-10-08T17:58:45.541Z,61.28
2022-10-08T18:01:18.258Z,61.34
2022-10-08T18:03:53.358Z,61.61
2022-10-08T18:06:20.341Z,61.82
2022-10-08T18:08:46.950Z,62.06
2022-10-08T18:11:15.138Z,62.23
2022-10-08T18:13:42.091Z,62.61
2022-10-08T18:16:17.706Z,62.85
2022-10-08T18:18:45.536Z,62.94
2022-10-08T18:21:13.529Z,63.47
2022-10-08T18:23:45.987Z,63.80
2022-10-08T18:26:24.064Z,64.03
2022-10-08T18:28:52.939Z,63.77
2022-10-08T18:31:21.538Z,64.59
2022-10-08T18:33:50.607Z,64.89
2022-10-08T18:36:19.719Z,64.82
2022-10-08T18:38:48.055Z,64.67
2022-10-08T18:41:18.069Z,65.24
2022-10-08T18:43:45.383Z,65.62
2022-10-08T18:46:12.846Z,66.50
2022-10-08T18:48:39.890Z,66.80
2022-10-08T18:51:14.452Z,66.67
2022-10-08T18:53:42.673Z,66.54
2022-10-08T18:56:15.809Z,67.73
2022-10-08T18:58:42.572Z,67.70
2022-10-08T19:01:27.182Z,68.18
2022-10-08T19:03:56.310Z,67.62
2022-10-08T19:06:25.503Z,67.77
2022-10-08T19:08:52.244Z,68.45
2022-10-08T19:11:21.315Z,68.56
2022-10-08T19:13:49.677Z,68.20
2022-10-08T19:16:16.329Z,67.75
2022-10-08T19:18:54.814Z,68.18
2022-10-08T19:21:23.511Z,68.19
2022-10-08T19:23:50.530Z,68.41
2022-10-08T19:26:17.139Z,68.38
2022-10-08T19:28:49.679Z,69.82
2022-10-08T19:31:20.944Z,68.82
2022-10-08T19:34:00.556Z,69.99
2022-10-08T19:36:31.603Z,69.13
2022-10-08T19:39:01.054Z,69.48
2022-10-08T19:41:28.947Z,69.86
2022-10-08T19:43:56.833Z,69.50
2022-10-08T19:46:24.545Z,70.07
2022-10-08T19:48:53.145Z,68.85
2022-10-08T19:51:20.125Z,69.52
2022-10-08T19:53:46.744Z,69.22
2022-10-08T19:56:13.768Z,69.78
2022-10-08T19:58:46.283Z,70.18
2022-10-08T20:01:18.188Z,70.51
2022-10-08T20:03:45.019Z,70.61
2022-10-08T20:06:13.962Z,70.45
2022-10-08T20:08:40.885Z,70.76
2022-10-08T20:11:10.773Z,70.21
2022-10-08T20:13:37.668Z,70.92
2022-10-08T20:16:10.649Z,71.44
2022-10-08T20:18:38.006Z,71.52
2022-10-08T20:21:10.347Z,71.05
2022-10-08T20:23:38.471Z,71.35
2022-10-08T20:26:26.552Z,72.87
2022-10-08T20:29:00.618Z,72.50
2022-10-08T20:31:34.106Z,72.19
2022-10-08T20:34:01.843Z,72.40
2022-10-08T20:36:29.527Z,72.02
2022-10-08T20:38:56.433Z,72.35
2022-10-08T20:41:26.796Z,71.45
2022-10-08T20:44:00.493Z,71.35
2022-10-08T20:46:27.490Z,71.60
2022-10-08T20:48:54.146Z,72.16
2022-10-08T20:51:23.182Z,72.43
2022-10-08T20:54:01.015Z,71.85
2022-10-08T20:56:29.139Z,71.93
2022-10-08T20:58:56.460Z,73.21
2022-10-08T21:01:25.628Z,72.64
2022-10-08T21:03:53.358Z,73.20
2022-10-08T21:06:25.153Z,72.92
2022-10-08T21:08:54.250Z,73.06
2022-10-08T21:11:23.225Z,73.58
2022-10-08T21:13:50.603Z,73.73
2022-10-08T21:16:19.923Z,73.76
2022-10-08T21:18:51.334Z,73.76
2022-10-08T21:21:18.188Z,74.09
2022-10-08T21:23:48.983Z,74.15
2022-10-08T21:26:20.252Z,73.64
2022-10-08T21:28:49.002Z,74.46
2022-10-08T21:31:16.804Z,74.40
2022-10-08T21:33:46.278Z,74.04
2022-10-08T21:36:16.091Z,74.10
2022-10-08T21:38:43.487Z,74.71
2022-10-08T21:41:13.100Z,74.47
2022-10-08T21:43:41.915Z,74.68
2022-10-08T21:46:10.544Z,74.37
2022-10-08T21:48:37.765Z,74.92
2022-10-08T21:51:20.170Z,75.08
2022-10-08T21:53:56.044Z,74.61
2022-10-08T21:56:25.068Z,74.83
2022-10-08T21:58:59.664Z,75.04
2022-10-08T22:01:28.981Z,74.84
2022-10-08T22:04:01.944Z,75.03
2022-10-08T22:06:30.545Z,74.96
2022-10-08T22:08:57.985Z,74.88
2022-10-08T22:11:25.084Z,75.38
2022-10-08T22:13:52.696Z,75.65
2022-10-08T22:16:20.845Z,75.55
2022-10-08T22:18:47.807Z,75.24
2022-10-08T22:21:22.209Z,75.67
2022-10-08T22:23:50.242Z,75.18
2022-10-08T22:26:23.159Z,74.84
2022-10-08T22:28:50.442Z,75.40
2022-10-08T22:31:18.678Z,75.58
2022-10-08T22:33:46.302Z,75.78
2022-10-08T22:36:19.115Z,76.25
2022-10-08T22:38:46.888Z,75.79
2022-10-08T22:41:19.053Z,75.80
2022-10-08T22:43:45.867Z,75.42
2022-10-08T22:46:16.959Z,75.66
2022-10-08T22:48:44.181Z,75.95
2022-10-08T22:51:13.860Z,76.14
2022-10-08T22:53:40.894Z,75.81
2022-10-08T22:56:12.835Z,75.82
2022-10-08T22:58:39.509Z,75.93
2022-10-08T23:01:08.998Z,76.08
2022-10-08T23:03:36.507Z,76.01
2022-10-08T23:06:20.547Z,76.16
2022-10-08T23:08:51.450Z,76.37
2022-10-08T23:11:18.014Z,76.00
2022-10-08T23:13:47.266Z,76.13
2022-10-08T23:16:15.253Z,76.08
2022-10-08T23:18:43.874Z,76.24
2022-10-08T23:21:16.578Z,76.80
2022-10-08T23:23:47.788Z,76.69
2022-10-08T23:26:15.878Z,76.47
2022-10-08T23:28:43.722Z,76.78
2022-10-08T23:31:15.549Z,76.94
2022-10-08T23:33:44.570Z,76.87
2022-10-08T23:36:17.277Z,77.06
2022-10-08T23:38:44.405Z,76.54
2022-10-08T23:41:12.214Z,76.98
2022-10-08T23:43:44.148Z,76.33
2022-10-08T23:46:13.171Z,76.99
2022-10-08T23:48:40.708Z,76.91
2022-10-08T23:51:09.115Z,77.02
2022-10-08T23:53:36.500Z,77.00
2022-10-08T23:56:03.761Z,77.30
2022-10-08T23:58:30.734Z,77.03
